CGH weather

Congonhas Airport
São Paulo, São Paulo, Brazil

Public forecast

Using degrees Celsius for public forecast. Weather courtesy of forecast.io.

Current aviation weather report (METAR) for Congonhas Airport

Retrieved 2019/10/14 21:00 UTC (31 minutes ago):

SBSP 142100Z 16013KT 9999 BKN015 21/17 Q1018

Aviation forecast (TAF) for Congonhas Airport

Retrieved 2019/10/14 18:30 UTC (3 hours ago):

TAF SBSP 141600Z 1418/1506 18010KT 9999 SCT020TX29/1418Z TN19/1505Z BECMG 1420/1422 BKN009 RMK PGG